»·PEaware :: N851TB KSNA-KCMA

N851TB :: KSNA-KCMA

FLIGHT INFORMATION

Flight Status: Arrived
Operator: Privately registered:
United States
More flights under this callsign
Pilot: Adam Paleczny (10444)
Aircraft: PIPER PA-32 SARATOGA
(PA32)
More flights by this aircraft type
Origin: KSNA John Wayne-Orange Co
United States
Destination: KCMA Camarillo
United States
More flights between these airports :: More routes between these airports
Route: SLI V23 POPPR SMO125 SMO VNY
File this flight plan on PilotEdge
Remarks: Request I-4 rating
Altitude:
(Current/Filed)
4,000ft
Speed:
(Current/Filed)
150kts
Departed: 10-Aug-17 08:47 AM
Arrived: 10-Aug-17 09:20 AM
Distance/Time
Traveled:
69nm/0:32
Distance/Time
To Go:
Arrived

Flight Plot

Page will automatically refresh every two minutes.


Map Options




Map Legend


Flown Route
Filed Route
Departure Airport
Arrival Airport
Navaid (VOR, NDB)
Fix

Horizontal Profiles

Position Reports

Time Latitude Longitude Heading Altitude Ground
Speed
10-Aug-17 08:32 33.670895 -117.867576 32 60ft 0kts
10-Aug-17 08:33 33.670895 -117.867576 32 60ft 0kts
10-Aug-17 08:34 33.670895 -117.867576 32 60ft 0kts
10-Aug-17 08:35 33.670895 -117.867576 32 60ft 0kts
10-Aug-17 08:36 33.670895 -117.867576 32 60ft 0kts
10-Aug-17 08:37 33.670895 -117.867576 32 60ft 0kts
10-Aug-17 08:38 33.670895 -117.867576 32 60ft 0kts
10-Aug-17 08:39 33.670895 -117.867576 32 60ft 0kts
10-Aug-17 08:40 33.670895 -117.867576 32 60ft 0kts
10-Aug-17 08:41 33.670895 -117.867576 32 60ft 0kts
10-Aug-17 08:42 33.670895 -117.867576 32 60ft 0kts
10-Aug-17 08:43 33.670895 -117.867576 32 60ft 0kts
10-Aug-17 08:44 33.670895 -117.867576 32 60ft 0kts
10-Aug-17 08:45 33.670895 -117.867576 32 60ft 0kts
10-Aug-17 08:46 33.672478 -117.867910 30 59ft 13kts
10-Aug-17 08:47 33.674878 -117.866634 28 60ft 13kts
10-Aug-17 08:48 33.678536 -117.864320 27 59ft 14kts
10-Aug-17 08:49 33.679988 -117.863679 298 60ft 0kts
10-Aug-17 08:50 33.670636 -117.870159 206 257ft 87kts
10-Aug-17 08:51 33.654189 -117.891733 230 1315ft 96kts
10-Aug-17 08:52 33.636591 -117.918428 230 2325ft 108kts
10-Aug-17 08:53 33.637468 -117.947926 330 3311ft 114kts
10-Aug-17 08:54 33.666146 -117.968777 328 3992ft 141kts
10-Aug-17 08:55 33.703452 -117.996245 328 3991ft 171kts
10-Aug-17 08:56 33.744835 -118.026857 328 3991ft 178kts
10-Aug-17 08:57 33.786393 -118.057718 326 3989ft 179kts
10-Aug-17 08:58 33.802055 -118.113007 284 3989ft 179kts
10-Aug-17 08:59 33.816191 -118.169406 288 3991ft 176kts
10-Aug-17 09:00 33.831183 -118.223239 289 3993ft 167kts
10-Aug-17 09:01 33.845958 -118.275476 289 3996ft 165kts
10-Aug-17 09:02 33.871180 -118.318983 319 3999ft 164kts
10-Aug-17 09:03 33.906015 -118.354070 320 3999ft 165kts
10-Aug-17 09:04 33.941136 -118.389037 320 3999ft 165kts
10-Aug-17 09:05 33.976315 -118.423942 320 3999ft 165kts
10-Aug-17 09:06 34.011873 -118.458592 332 3992ft 165kts
10-Aug-17 09:07 34.056945 -118.464958 351 3999ft 165kts
10-Aug-17 09:08 34.102132 -118.472739 351 3999ft 165kts
10-Aug-17 09:09 34.147441 -118.480094 352 4002ft 165kts
10-Aug-17 09:10 34.172736 -118.517567 283 4004ft 165kts
10-Aug-17 09:11 34.180996 -118.562556 283 4008ft 165kts
10-Aug-17 09:12 34.190344 -118.616994 274 4009ft 166kts
10-Aug-17 09:13 34.191986 -118.663022 272 4009ft 166kts
10-Aug-17 09:14 34.194157 -118.726621 272 4009ft 166kts
10-Aug-17 09:15 34.196077 -118.782380 272 4009ft 166kts
10-Aug-17 09:16 34.198007 -118.838196 272 4009ft 166kts
10-Aug-17 09:18 34.200860 -118.895673 281 3145ft 174kts
10-Aug-17 09:19 34.208831 -118.947034 278 2164ft 136kts
10-Aug-17 09:19 34.212121 -118.983137 273 1478ft 121kts
10-Aug-17 09:20 34.213006 -119.018861 270 1091ft 92kts
10-Aug-17 09:22 34.213323 -119.054194 269 561ft 90kts
10-Aug-17 09:22 34.213590 -119.079345 270 184ft 89kts
10-Aug-17 09:23 34.212810 -119.095640 192 80ft 8kts
10-Aug-17 09:24 34.211062 -119.094528 105 79ft 16kts
10-Aug-17 09:25 34.210718 -119.093374 9 78ft 0kts
10-Aug-17 09:26 34.210718 -119.093374 9 78ft 0kts
10-Aug-17 09:27 34.210718 -119.093374 9 78ft 0kts
10-Aug-17 09:28 34.210718 -119.093374 9 78ft 0kts
10-Aug-17 09:29 34.210718 -119.093374 9 78ft 0kts

Navigation Log

Ident Type
1. KSNA Airport
2. SLI Navaid
3. POPPR Fix
4. SMO Navaid
5. VNY Navaid
6. KCMA Airport